createdAt,value
2019-03-31T00:00:08.131Z,7.01
2019-03-31T00:02:39.349Z,7.03
2019-03-31T00:05:10.853Z,7.04
2019-03-31T00:07:42.030Z,6.80
2019-03-31T00:10:13.584Z,6.65
2019-03-31T00:12:44.810Z,6.57
2019-03-31T00:15:16.050Z,6.50
2019-03-31T00:17:47.230Z,6.45
2019-03-31T00:20:18.390Z,6.34
2019-03-31T00:22:49.568Z,6.23
2019-03-31T00:25:20.800Z,6.26
2019-03-31T00:27:51.905Z,6.16
2019-03-31T00:30:23.094Z,6.11
2019-03-31T00:32:54.344Z,6.12
2019-03-31T00:35:25.593Z,6.04
2019-03-31T00:37:56.765Z,5.99
2019-03-31T00:40:27.960Z,5.97
2019-03-31T00:42:59.294Z,5.90
2019-03-31T00:45:30.500Z,5.92
2019-03-31T00:48:01.942Z,5.85
2019-03-31T00:50:33.234Z,5.79
2019-03-31T00:53:04.403Z,5.66
2019-03-31T00:55:35.689Z,5.56
2019-03-31T00:58:06.982Z,5.46
2019-03-31T01:00:57.744Z,5.43
2019-03-31T01:03:29.700Z,5.41
2019-03-31T01:06:01.010Z,5.36
2019-03-31T01:08:34.878Z,5.23
2019-03-31T01:11:13.439Z,5.16
2019-03-31T01:13:45.743Z,5.08
2019-03-31T01:16:18.220Z,5.04
2019-03-31T01:18:49.576Z,5.12
2019-03-31T01:21:21.300Z,5.16
2019-03-31T01:23:52.572Z,5.17
2019-03-31T01:26:23.820Z,5.09
2019-03-31T01:28:56.726Z,5.11
2019-03-31T01:31:28.419Z,5.16
2019-03-31T01:34:00.048Z,5.22
2019-03-31T01:36:31.221Z,5.26
2019-03-31T01:39:02.407Z,5.27
2019-03-31T01:41:33.589Z,5.22
2019-03-31T01:44:04.844Z,5.45
2019-03-31T01:46:36.149Z,5.46
2019-03-31T01:49:07.659Z,5.47
2019-03-31T01:51:38.777Z,5.44
2019-03-31T01:54:09.998Z,5.40
2019-03-31T01:56:44.609Z,5.39
2019-03-31T01:59:14.394Z,5.53
2019-03-31T02:01:45.746Z,5.55
2019-03-31T02:04:16.941Z,5.55
2019-03-31T02:06:48.359Z,5.55
2019-03-31T02:09:19.546Z,5.48
2019-03-31T02:11:50.808Z,5.89
2019-03-31T02:14:22.048Z,5.82
2019-03-31T02:16:53.294Z,5.75
2019-03-31T02:19:24.408Z,5.72
2019-03-31T02:21:55.657Z,5.77
2019-03-31T02:24:26.864Z,5.77
2019-03-31T02:26:58.264Z,5.56
2019-03-31T02:29:29.483Z,5.41
2019-03-31T02:32:00.676Z,5.41
2019-03-31T02:34:31.822Z,5.41
2019-03-31T02:37:03.162Z,5.51
2019-03-31T02:39:34.434Z,5.76
2019-03-31T02:42:06.005Z,5.90
2019-03-31T02:44:37.090Z,5.93
2019-03-31T02:47:08.255Z,5.95
2019-03-31T02:49:39.488Z,5.82
2019-03-31T02:52:10.941Z,5.72
2019-03-31T02:54:42.170Z,5.67
2019-03-31T02:57:13.634Z,5.63
2019-03-31T02:59:45.452Z,5.58
2019-03-31T03:02:17.621Z,5.49
2019-03-31T03:04:50.868Z,5.41
2019-03-31T03:07:23.511Z,5.31
2019-03-31T03:09:55.598Z,5.17
2019-03-31T03:12:30.468Z,5.18
2019-03-31T03:15:04.955Z,5.23
2019-03-31T03:17:36.101Z,5.22
2019-03-31T03:20:07.931Z,5.23
2019-03-31T03:22:39.029Z,5.14
2019-03-31T03:25:10.505Z,5.20
2019-03-31T03:27:41.832Z,5.25
2019-03-31T03:30:13.685Z,5.20
2019-03-31T03:33:12.407Z,5.22
2019-03-31T03:35:17.959Z,5.26
2019-03-31T03:37:49.639Z,5.42
2019-03-31T03:40:20.826Z,5.41
2019-03-31T03:42:52.033Z,5.40
2019-03-31T03:45:23.280Z,5.47
2019-03-31T03:47:54.359Z,5.46
2019-03-31T03:50:25.866Z,5.37
2019-03-31T03:52:57.095Z,5.26
2019-03-31T03:55:28.220Z,5.14
2019-03-31T03:57:59.296Z,5.17
2019-03-31T04:00:30.595Z,5.17
2019-03-31T04:03:01.797Z,5.05
2019-03-31T04:05:32.989Z,5.12
2019-03-31T04:08:04.094Z,5.17
2019-03-31T04:11:22.885Z,5.07
2019-03-31T04:13:54.513Z,5.17
2019-03-31T04:16:25.880Z,5.33
2019-03-31T04:18:57.230Z,5.31
2019-03-31T04:21:28.644Z,5.24
2019-03-31T04:24:00.146Z,5.14
2019-03-31T04:26:31.441Z,5.05
2019-03-31T04:29:02.636Z,5.06
2019-03-31T04:31:33.907Z,4.99
2019-03-31T04:34:05.226Z,4.89
2019-03-31T04:36:36.477Z,4.88
2019-03-31T04:39:09.599Z,4.88
2019-03-31T04:41:40.869Z,4.92
2019-03-31T04:44:12.205Z,4.86
2019-03-31T04:46:43.427Z,5.00
2019-03-31T04:49:14.565Z,5.15
2019-03-31T04:51:45.779Z,5.39
2019-03-31T04:54:17.089Z,5.64
2019-03-31T04:56:48.209Z,5.90
2019-03-31T04:59:19.404Z,5.99
2019-03-31T05:01:50.609Z,6.12
2019-03-31T05:04:21.808Z,6.29
2019-03-31T05:06:53.845Z,6.49
2019-03-31T05:09:25.088Z,6.69
2019-03-31T05:11:56.285Z,6.68
2019-03-31T05:14:46.256Z,6.90
2019-03-31T05:17:17.430Z,7.05
2019-03-31T05:19:48.535Z,7.27
2019-03-31T05:22:19.799Z,7.30
2019-03-31T05:24:51.054Z,7.31
2019-03-31T05:27:22.358Z,7.47
2019-03-31T05:29:53.581Z,7.57
2019-03-31T05:32:24.799Z,7.76
2019-03-31T05:34:55.938Z,8.10
2019-03-31T05:37:27.220Z,8.30
2019-03-31T05:39:58.393Z,8.55
2019-03-31T05:42:29.678Z,8.78
2019-03-31T05:45:00.880Z,9.48
2019-03-31T05:47:32.088Z,9.72
2019-03-31T05:50:03.473Z,9.79
2019-03-31T05:52:34.699Z,9.74
2019-03-31T05:55:06.293Z,9.74
2019-03-31T05:57:37.598Z,9.89
2019-03-31T06:00:09.555Z,10.34
2019-03-31T06:02:40.694Z,11.47
2019-03-31T06:05:12.154Z,12.46
2019-03-31T06:07:44.299Z,12.56
2019-03-31T06:10:18.028Z,13.23
2019-03-31T06:12:49.571Z,13.64
2019-03-31T06:15:22.070Z,13.71
2019-03-31T06:17:54.480Z,13.03
2019-03-31T06:20:25.809Z,12.01
2019-03-31T06:22:57.328Z,11.73
2019-03-31T06:25:28.670Z,11.47
2019-03-31T06:27:59.988Z,11.44
2019-03-31T06:30:31.605Z,11.31
2019-03-31T06:33:03.224Z,10.83
2019-03-31T06:35:34.470Z,10.76
2019-03-31T06:38:05.795Z,10.41
2019-03-31T06:40:37.234Z,10.22
2019-03-31T06:43:08.651Z,10.01
2019-03-31T06:45:40.245Z,10.11
2019-03-31T06:48:11.824Z,9.60
2019-03-31T06:50:43.360Z,9.47
2019-03-31T06:53:14.957Z,9.71
2019-03-31T06:55:46.493Z,9.72
2019-03-31T06:58:17.918Z,9.88
2019-03-31T07:00:49.164Z,9.83
2019-03-31T07:03:20.357Z,9.79
2019-03-31T07:05:51.806Z,9.70
2019-03-31T07:08:23.245Z,9.73
2019-03-31T07:10:54.683Z,9.88
2019-03-31T07:13:25.928Z,10.17
2019-03-31T07:15:58.176Z,10.19
2019-03-31T07:18:29.876Z,10.36
2019-03-31T07:21:01.353Z,10.66
2019-03-31T07:23:35.041Z,10.71
2019-03-31T07:26:06.560Z,11.07
2019-03-31T07:28:38.015Z,11.52
2019-03-31T07:31:11.605Z,12.13
2019-03-31T07:33:42.777Z,12.58
2019-03-31T07:36:14.089Z,12.84
2019-03-31T07:38:45.420Z,12.87
2019-03-31T07:41:16.766Z,13.19
2019-03-31T07:43:48.279Z,13.31
2019-03-31T07:46:19.508Z,13.32
2019-03-31T07:48:50.746Z,13.16
2019-03-31T07:51:22.324Z,13.12
2019-03-31T07:53:53.649Z,13.09
2019-03-31T07:56:25.017Z,13.41
2019-03-31T07:58:56.212Z,13.95
2019-03-31T08:01:27.859Z,14.61
2019-03-31T08:04:00.919Z,14.91
2019-03-31T08:06:32.568Z,14.60
2019-03-31T08:09:07.368Z,14.50
2019-03-31T08:11:38.700Z,14.46
2019-03-31T08:14:09.995Z,14.92
2019-03-31T08:16:41.186Z,16.20
2019-03-31T08:19:12.315Z,18.35
2019-03-31T08:21:43.567Z,19.95
2019-03-31T08:24:14.777Z,20.55
2019-03-31T08:26:45.914Z,20.76
2019-03-31T08:29:17.005Z,21.26
2019-03-31T08:31:49.113Z,21.70
2019-03-31T08:34:20.485Z,23.30
2019-03-31T08:36:51.785Z,20.66
2019-03-31T08:39:29.230Z,21.68
2019-03-31T08:42:00.606Z,22.94
2019-03-31T08:44:31.888Z,24.06
2019-03-31T08:47:03.472Z,22.77
2019-03-31T08:49:34.673Z,22.29
2019-03-31T08:52:06.298Z,22.78
2019-03-31T08:54:38.026Z,21.50
2019-03-31T08:57:09.459Z,20.47
2019-03-31T08:59:40.974Z,19.42
2019-03-31T09:02:31.829Z,19.08
2019-03-31T09:05:03.145Z,18.87
2019-03-31T09:07:34.404Z,18.95
2019-03-31T09:10:07.329Z,18.62
2019-03-31T09:12:39.217Z,20.64
2019-03-31T09:15:13.180Z,22.57
2019-03-31T09:18:01.317Z,23.31
2019-03-31T09:20:32.548Z,24.22
2019-03-31T09:23:03.899Z,23.87
2019-03-31T09:25:35.216Z,24.89
2019-03-31T09:28:06.428Z,24.52
2019-03-31T09:30:37.798Z,24.78
2019-03-31T09:33:09.109Z,25.00
2019-03-31T09:35:40.228Z,25.40
2019-03-31T09:38:11.445Z,24.92
2019-03-31T09:40:42.715Z,24.10
2019-03-31T09:43:13.944Z,23.74
2019-03-31T09:45:45.219Z,24.24
2019-03-31T09:48:18.885Z,25.45
2019-03-31T09:50:50.206Z,26.11
2019-03-31T09:53:21.519Z,25.24
2019-03-31T09:55:52.890Z,26.98
2019-03-31T09:58:24.147Z,25.68
2019-03-31T10:00:55.621Z,24.77
2019-03-31T10:03:27.010Z,25.15
2019-03-31T10:06:10.057Z,25.87
2019-03-31T10:08:32.145Z,25.64
2019-03-31T10:11:03.489Z,26.98
2019-03-31T10:13:34.768Z,26.93
2019-03-31T10:16:05.991Z,26.80
2019-03-31T10:18:37.175Z,27.11
2019-03-31T10:21:08.482Z,26.83
2019-03-31T10:23:39.733Z,26.11
2019-03-31T10:26:11.088Z,26.04
2019-03-31T10:28:42.250Z,26.45
2019-03-31T10:31:13.379Z,27.68
2019-03-31T10:33:44.650Z,27.71
2019-03-31T10:36:16.284Z,25.73
2019-03-31T10:38:47.610Z,26.07
2019-03-31T10:41:18.908Z,24.99
2019-03-31T10:43:50.248Z,26.30
2019-03-31T10:46:21.591Z,27.16
2019-03-31T10:48:52.766Z,25.23
2019-03-31T10:51:24.065Z,25.22
2019-03-31T10:53:55.263Z,24.99
2019-03-31T10:56:26.603Z,25.91
2019-03-31T10:58:58.023Z,26.12
2019-03-31T11:01:29.325Z,26.78
2019-03-31T11:04:00.572Z,25.94
2019-03-31T11:06:32.119Z,25.23
2019-03-31T11:09:05.068Z,24.84
2019-03-31T11:11:36.589Z,25.10
2019-03-31T11:14:07.854Z,23.46
2019-03-31T11:16:39.009Z,22.44
2019-03-31T11:19:10.167Z,22.18
2019-03-31T11:21:47.474Z,21.38
2019-03-31T11:24:18.787Z,20.85
2019-03-31T11:26:50.089Z,20.59
2019-03-31T11:29:21.253Z,20.98
2019-03-31T11:31:52.394Z,21.02
2019-03-31T11:34:23.555Z,20.76
2019-03-31T11:36:54.983Z,20.59
2019-03-31T11:39:26.389Z,20.62
2019-03-31T11:41:57.708Z,20.20
2019-03-31T11:44:29.031Z,20.40
2019-03-31T11:47:00.410Z,20.29
2019-03-31T11:49:31.690Z,20.42
2019-03-31T11:52:02.894Z,20.08
2019-03-31T11:54:34.164Z,19.55
2019-03-31T11:57:05.390Z,19.62
2019-03-31T11:59:36.558Z,20.13
2019-03-31T12:02:08.066Z,19.42
2019-03-31T12:04:39.470Z,19.46
2019-03-31T12:07:10.698Z,19.96
2019-03-31T12:09:41.873Z,19.90
2019-03-31T12:12:13.170Z,19.67
2019-03-31T12:14:44.501Z,19.46
2019-03-31T12:17:16.332Z,18.83
2019-03-31T12:19:48.858Z,18.80
2019-03-31T12:22:20.369Z,18.82
2019-03-31T12:24:51.621Z,18.97
2019-03-31T12:27:23.019Z,19.43
2019-03-31T12:29:55.453Z,18.76
2019-03-31T12:32:26.773Z,18.20
2019-03-31T12:34:58.063Z,18.34
2019-03-31T12:37:41.695Z,18.10
2019-03-31T12:40:02.249Z,18.61
2019-03-31T12:42:33.568Z,18.72
2019-03-31T12:45:05.739Z,17.98
2019-03-31T12:47:37.007Z,18.20
2019-03-31T12:50:08.983Z,18.14
2019-03-31T12:52:46.512Z,18.34
2019-03-31T12:55:13.327Z,18.48
2019-03-31T12:57:44.447Z,18.95
2019-03-31T13:00:16.720Z,18.42
2019-03-31T13:02:48.046Z,18.49
2019-03-31T13:05:19.435Z,18.33
2019-03-31T13:07:56.683Z,17.82
2019-03-31T13:10:23.684Z,17.90
2019-03-31T13:12:55.020Z,17.64
2019-03-31T13:15:26.326Z,17.38
2019-03-31T13:17:57.885Z,17.05
2019-03-31T13:20:29.340Z,16.94
2019-03-31T13:23:00.754Z,16.20
2019-03-31T13:25:32.111Z,16.04
2019-03-31T13:28:05.659Z,15.96
2019-03-31T13:30:36.363Z,16.12
2019-03-31T13:33:16.666Z,15.98
2019-03-31T13:35:47.987Z,16.06
2019-03-31T13:38:19.221Z,15.96
2019-03-31T13:40:50.717Z,15.79
2019-03-31T13:43:22.029Z,15.98
2019-03-31T13:45:53.355Z,16.04
2019-03-31T13:48:24.874Z,16.42
2019-03-31T13:50:56.080Z,16.15
2019-03-31T13:53:27.464Z,15.89
2019-03-31T13:55:58.667Z,15.52
2019-03-31T13:58:30.529Z,15.79
2019-03-31T14:01:02.193Z,15.74
2019-03-31T14:03:33.640Z,15.87
2019-03-31T14:06:04.940Z,16.05
2019-03-31T14:08:36.104Z,15.83
2019-03-31T14:11:08.074Z,15.88
2019-03-31T14:13:39.227Z,15.88
2019-03-31T14:16:10.588Z,15.60
2019-03-31T14:18:41.808Z,15.21
2019-03-31T14:21:12.939Z,15.20
2019-03-31T14:23:44.280Z,15.59
2019-03-31T14:26:15.519Z,15.74
2019-03-31T14:28:46.598Z,15.26
2019-03-31T14:31:17.828Z,14.64
2019-03-31T14:33:49.321Z,14.49
2019-03-31T14:36:20.589Z,14.41
2019-03-31T14:38:52.064Z,14.34
2019-03-31T14:41:23.528Z,14.00
2019-03-31T14:43:54.870Z,13.75
2019-03-31T14:46:26.150Z,13.78
2019-03-31T14:48:57.386Z,13.90
2019-03-31T14:51:28.711Z,14.05
2019-03-31T14:54:00.175Z,13.77
2019-03-31T14:56:31.462Z,13.59
2019-03-31T14:59:02.905Z,13.49
2019-03-31T15:01:33.999Z,13.44
2019-03-31T15:04:05.319Z,12.94
2019-03-31T15:06:36.495Z,12.54
2019-03-31T15:09:09.844Z,12.56
2019-03-31T15:11:41.018Z,12.53
2019-03-31T15:14:12.270Z,12.63
2019-03-31T15:16:43.513Z,12.85
2019-03-31T15:19:14.717Z,12.98
2019-03-31T15:21:45.905Z,12.52
2019-03-31T15:24:17.208Z,12.30
2019-03-31T15:26:48.495Z,12.18
2019-03-31T15:29:19.685Z,12.18
2019-03-31T15:31:51.124Z,12.05
2019-03-31T15:34:22.449Z,12.05
2019-03-31T15:36:53.664Z,11.96
2019-03-31T15:39:24.984Z,11.72
2019-03-31T15:41:56.341Z,11.77
2019-03-31T15:44:27.589Z,11.82
2019-03-31T15:46:58.869Z,11.67
2019-03-31T15:49:30.237Z,11.56
2019-03-31T15:52:01.484Z,11.51
2019-03-31T15:54:32.802Z,11.53
2019-03-31T15:57:04.185Z,11.54
2019-03-31T15:59:39.008Z,11.52
2019-03-31T16:02:12.375Z,11.47
2019-03-31T16:04:44.544Z,11.49
2019-03-31T16:07:21.689Z,11.48
2019-03-31T16:09:52.333Z,11.47
2019-03-31T16:12:23.055Z,11.42
2019-03-31T16:14:54.710Z,11.32
2019-03-31T16:17:26.265Z,11.25
2019-03-31T16:20:04.615Z,11.10
2019-03-31T16:22:38.659Z,11.05
2019-03-31T16:25:21.078Z,10.94
2019-03-31T16:27:52.390Z,10.87
2019-03-31T16:30:23.315Z,10.60
2019-03-31T16:32:57.694Z,10.42
2019-03-31T16:35:30.670Z,10.27
2019-03-31T16:38:01.231Z,10.11
2019-03-31T16:40:31.864Z,9.96
2019-03-31T16:43:03.470Z,9.92
2019-03-31T16:45:36.460Z,9.80
2019-03-31T16:48:07.044Z,9.80
2019-03-31T16:50:40.635Z,9.75
2019-03-31T16:53:14.199Z,9.67
2019-03-31T16:55:46.002Z,9.62
2019-03-31T16:58:18.674Z,9.48
2019-03-31T17:00:49.268Z,9.38
2019-03-31T17:03:21.120Z,9.36
2019-03-31T17:05:54.122Z,9.28
2019-03-31T17:08:24.734Z,9.15
2019-03-31T17:10:55.194Z,9.09
2019-03-31T17:13:25.801Z,9.08
2019-03-31T17:15:56.278Z,8.93
2019-03-31T17:18:27.084Z,8.91
2019-03-31T17:21:08.340Z,8.82
2019-03-31T17:23:40.988Z,8.77
2019-03-31T17:26:13.880Z,8.64
2019-03-31T17:28:44.469Z,8.54
2019-03-31T17:31:15.253Z,8.55
2019-03-31T17:33:46.003Z,8.39
2019-03-31T17:36:18.212Z,8.36
2019-03-31T17:38:49.905Z,8.33
2019-03-31T17:41:20.621Z,8.18
2019-03-31T17:43:51.249Z,8.14
2019-03-31T17:46:23.373Z,8.06
2019-03-31T17:48:56.268Z,7.99
2019-03-31T17:51:29.985Z,7.97
2019-03-31T17:54:06.268Z,7.86
2019-03-31T17:56:36.484Z,7.95
2019-03-31T17:59:08.918Z,7.96
2019-03-31T18:01:40.954Z,7.85
2019-03-31T18:04:14.743Z,7.81
2019-03-31T18:06:47.680Z,7.69
2019-03-31T18:09:24.335Z,7.69
2019-03-31T18:11:57.575Z,7.60
2019-03-31T18:14:29.184Z,7.50
2019-03-31T18:17:03.319Z,7.32
2019-03-31T18:19:33.904Z,7.24
2019-03-31T18:22:16.384Z,7.24
2019-03-31T18:24:40.639Z,7.13
2019-03-31T18:27:16.414Z,7.06
2019-03-31T18:29:52.249Z,6.97
2019-03-31T18:32:29.479Z,6.88
2019-03-31T18:35:09.994Z,6.77
2019-03-31T18:37:40.605Z,6.71
2019-03-31T18:40:12.328Z,6.65
2019-03-31T18:42:48.105Z,6.65
2019-03-31T18:45:20.015Z,6.60
2019-03-31T18:47:50.548Z,6.72
2019-03-31T18:50:21.134Z,6.62
2019-03-31T18:52:52.785Z,6.64
2019-03-31T18:55:35.538Z,6.51
2019-03-31T18:58:21.811Z,6.39
2019-03-31T19:01:10.029Z,6.31
2019-03-31T19:04:12.372Z,6.21
2019-03-31T19:06:54.729Z,6.13
2019-03-31T19:09:35.493Z,6.07
2019-03-31T19:12:27.322Z,6.16
2019-03-31T19:15:17.641Z,6.15
2019-03-31T19:18:07.444Z,6.16
2019-03-31T19:21:11.511Z,6.13
2019-03-31T19:23:54.192Z,6.15
2019-03-31T19:26:48.742Z,6.09
2019-03-31T19:29:41.118Z,6.00
2019-03-31T19:32:21.189Z,5.92
2019-03-31T19:35:22.736Z,5.84
2019-03-31T19:38:14.116Z,5.77
2019-03-31T19:41:05.821Z,5.64
2019-03-31T19:43:55.104Z,5.58
2019-03-31T19:46:35.772Z,5.57
2019-03-31T19:49:26.335Z,5.59
2019-03-31T19:52:16.084Z,5.63
2019-03-31T19:55:09.655Z,5.74
2019-03-31T19:57:58.900Z,6.04
2019-03-31T20:00:53.031Z,6.26
2019-03-31T20:03:44.645Z,6.33
2019-03-31T20:06:27.750Z,6.43
2019-03-31T20:09:13.914Z,6.34
2019-03-31T20:12:07.668Z,6.44
2019-03-31T20:15:09.915Z,6.39
2019-03-31T20:18:00.320Z,6.35
2019-03-31T20:20:49.524Z,6.32
2019-03-31T20:23:34.680Z,6.28
2019-03-31T20:26:24.101Z,6.21
2019-03-31T20:29:10.584Z,6.25
2019-03-31T20:31:59.987Z,6.17
2019-03-31T20:34:44.764Z,6.15
2019-03-31T20:37:35.965Z,6.12
2019-03-31T20:40:22.200Z,5.99
2019-03-31T20:43:11.479Z,5.88
2019-03-31T20:45:43.839Z,5.94
2019-03-31T20:48:16.488Z,5.88
2019-03-31T20:50:46.879Z,5.83
2019-03-31T20:53:19.388Z,5.81
2019-03-31T20:55:49.845Z,5.74
2019-03-31T20:58:20.224Z,5.66
2019-03-31T21:00:50.595Z,5.55
2019-03-31T21:03:21.148Z,5.61
2019-03-31T21:05:51.584Z,5.56
2019-03-31T21:08:22.164Z,5.44
2019-03-31T21:10:52.455Z,5.39
2019-03-31T21:13:22.855Z,5.37
2019-03-31T21:15:53.207Z,5.21
2019-03-31T21:18:23.654Z,5.22
2019-03-31T21:20:54.146Z,5.19
2019-03-31T21:23:24.528Z,5.13
2019-03-31T21:25:54.898Z,5.08
2019-03-31T21:28:25.307Z,5.14
2019-03-31T21:30:55.755Z,5.07
2019-03-31T21:33:26.093Z,5.03
2019-03-31T21:35:56.374Z,5.03
2019-03-31T21:38:26.839Z,5.01
2019-03-31T21:40:57.167Z,4.97
2019-03-31T21:43:27.514Z,4.91
2019-03-31T21:45:57.884Z,4.81
2019-03-31T21:48:28.308Z,4.74
2019-03-31T21:50:58.698Z,4.70
2019-03-31T21:53:28.984Z,4.66
2019-03-31T21:55:59.390Z,4.57
2019-03-31T21:58:29.800Z,4.55
2019-03-31T22:01:00.521Z,4.50
2019-03-31T22:03:30.870Z,4.49
2019-03-31T22:06:01.315Z,4.44
2019-03-31T22:08:31.740Z,4.49
2019-03-31T22:11:02.134Z,4.37
2019-03-31T22:13:32.541Z,4.33
2019-03-31T22:16:03.074Z,4.24
2019-03-31T22:18:33.820Z,4.19
2019-03-31T22:21:04.251Z,4.30
2019-03-31T22:23:37.766Z,4.27
2019-03-31T22:26:08.300Z,4.20
2019-03-31T22:28:38.778Z,4.10
2019-03-31T22:31:09.340Z,4.06
2019-03-31T22:33:39.726Z,4.01
2019-03-31T22:36:29.109Z,3.93
2019-03-31T22:38:59.468Z,3.81
2019-03-31T22:41:29.855Z,3.79
2019-03-31T22:44:00.311Z,3.75
2019-03-31T22:46:30.700Z,3.74
2019-03-31T22:49:01.080Z,3.66
2019-03-31T22:51:31.456Z,3.68
2019-03-31T22:54:01.820Z,3.74
2019-03-31T22:56:32.166Z,3.65
2019-03-31T22:59:02.513Z,3.63
2019-03-31T23:01:33.238Z,3.67
2019-03-31T23:04:03.726Z,3.68
2019-03-31T23:06:34.091Z,3.54
2019-03-31T23:09:06.126Z,3.44
2019-03-31T23:11:36.670Z,3.39
2019-03-31T23:14:07.104Z,3.34
2019-03-31T23:16:37.639Z,3.40
2019-03-31T23:19:08.590Z,3.34
2019-03-31T23:21:38.972Z,3.27
2019-03-31T23:24:09.430Z,3.25
2019-03-31T23:26:39.944Z,3.20
2019-03-31T23:29:10.324Z,3.20
2019-03-31T23:31:40.673Z,3.12
2019-03-31T23:34:11.114Z,3.08
2019-03-31T23:36:41.521Z,3.06
2019-03-31T23:39:11.929Z,3.00
2019-03-31T23:41:42.269Z,2.95
2019-03-31T23:44:12.900Z,3.00
2019-03-31T23:46:43.440Z,3.00
2019-03-31T23:49:13.789Z,2.97
2019-03-31T23:51:44.170Z,2.99
2019-03-31T23:54:14.507Z,2.93
2019-03-31T23:56:44.954Z,2.92
2019-03-31T23:59:15.410Z,2.87
